Time;durP1;ratioP1;P1;durP2;ratioP2;P2;SDS_P1;SDS_P2;PMS_P1;PMS_P2;Temp;Humidity;BMP_temperature;BMP_pressure;BME280_temperature;BME280_humidity;BME280_pressure;Samples;Min_cycle;Max_cycle;Signal;HPM_P1;HPM_P2
2021/01/08 00:00:14;;;;;;;8.45;3.10;;;;;;;26.65;13.04;97832.34;5086332;28;20457;-86
2021/01/08 00:02:40;;;;;;;8.85;3.47;;;;;;;26.74;13.40;97831.63;5085233;28;20123;-85
2021/01/08 00:05:08;;;;;;;8.38;3.35;;;;;;;26.63;13.48;97834.81;5086489;28;20089;-85
2021/01/08 00:07:34;;;;;;;6.45;2.90;;;;;;;26.78;13.32;97828.72;5086057;28;20028;-85
2021/01/08 00:10:01;;;;;;;7.45;3.13;;;;;;;26.78;13.28;97831.53;5084276;28;20032;-85
2021/01/08 00:12:31;;;;;;;7.05;3.13;;;;;;;26.88;13.46;97822.69;5086793;28;20089;-85
2021/01/08 00:14:58;;;;;;;8.57;4.13;;;;;;;27.02;13.14;97827.00;5084752;28;20036;-85
2021/01/08 00:17:25;;;;;;;7.80;3.65;;;;;;;27.00;13.07;97823.88;5084452;28;20042;-85
2021/01/08 00:19:52;;;;;;;12.05;4.22;;;;;;;26.95;13.32;97830.09;5086954;28;20056;-85
2021/01/08 00:22:19;;;;;;;9.43;4.50;;;;;;;26.76;13.15;97825.56;5067943;28;20043;-85
2021/01/08 00:24:46;;;;;;;7.47;3.33;;;;;;;26.57;13.34;97828.22;5075134;28;20051;-85
2021/01/08 00:27:12;;;;;;;7.07;2.45;;;;;;;26.31;13.69;97823.91;5068441;28;20025;-85
2021/01/08 00:29:38;;;;;;;8.13;4.00;;;;;;;26.32;13.84;97824.72;5083922;28;20438;-85
2021/01/08 00:32:04;;;;;;;7.75;3.15;;;;;;;26.37;13.65;97827.72;5081616;28;20051;-85
2021/01/08 00:34:30;;;;;;;6.78;2.67;;;;;;;26.61;13.48;97837.31;5083812;28;20392;-85
2021/01/08 00:36:57;;;;;;;9.43;3.40;;;;;;;26.73;13.14;97836.47;5084300;28;20040;-85
2021/01/08 00:39:24;;;;;;;9.15;3.70;;;;;;;26.38;13.41;97831.31;5082458;28;20130;-85
2021/01/08 00:41:50;;;;;;;8.55;3.40;;;;;;;26.00;13.91;97839.84;5070606;28;20035;-85
2021/01/08 00:44:17;;;;;;;7.78;2.58;;;;;;;25.81;14.17;97836.03;5084387;28;20103;-85
2021/01/08 00:46:45;;;;;;;5.45;2.35;;;;;;;26.03;14.27;97841.75;5084008;28;20039;-85
2021/01/08 00:49:11;;;;;;;8.75;3.90;;;;;;;26.15;13.55;97834.53;5066323;28;20067;-85
2021/01/08 00:51:38;;;;;;;6.82;2.95;;;;;;;25.99;14.13;97843.91;5088424;28;20051;-85
2021/01/08 00:54:08;;;;;;;8.20;1.95;;;;;;;26.10;14.06;97838.72;5084919;28;20036;-85
2021/01/08 00:56:34;;;;;;;5.95;2.95;;;;;;;26.35;13.79;97838.66;5082541;28;20070;-85
2021/01/08 00:59:01;;;;;;;7.10;3.00;;;;;;;26.40;13.66;97837.28;5080596;28;20032;-85
2021/01/08 01:01:27;;;;;;;6.93;3.47;;;;;;;26.41;13.52;97836.84;5087423;28;20039;-85
2021/01/08 01:03:54;;;;;;;6.18;2.83;;;;;;;25.98;14.02;97840.28;5083574;28;20088;-85
2021/01/08 01:06:28;;;;;;;7.18;2.65;;;;;;;26.09;14.00;97831.50;5085854;28;20045;-85
2021/01/08 01:08:55;;;;;;;5.95;2.60;;;;;;;26.32;13.75;97842.41;5080975;28;20039;-85
2021/01/08 01:11:24;;;;;;;7.50;3.15;;;;;;;26.15;13.76;97843.00;5084538;28;20055;-85
2021/01/08 01:13:52;;;;;;;8.25;2.80;;;;;;;26.29;13.83;97848.13;5081149;28;20035;-85
2021/01/08 01:16:19;;;;;;;6.13;2.90;;;;;;;26.21;13.67;97847.59;5083577;28;20497;-85
2021/01/08 01:18:49;;;;;;;9.20;3.90;;;;;;;25.96;14.09;97841.97;5082625;28;20031;-85
2021/01/08 01:21:16;;;;;;;6.63;3.17;;;;;;;26.04;13.96;97843.34;5085528;28;20110;-85
2021/01/08 01:23:42;;;;;;;8.35;3.33;;;;;;;26.15;13.83;97840.16;5062300;28;20063;-85
2021/01/08 01:26:08;;;;;;;9.63;3.67;;;;;;;26.00;13.70;97839.84;5083400;28;20099;-85
2021/01/08 01:28:35;;;;;;;8.88;3.92;;;;;;;26.07;13.58;97840.38;5085537;28;20372;-85
2021/01/08 01:31:02;;;;;;;7.22;3.25;;;;;;;26.24;13.67;97841.06;5081419;28;20380;-84
2021/01/08 01:33:28;;;;;;;6.55;2.92;;;;;;;26.29;13.41;97848.13;5084801;28;20102;-85
2021/01/08 01:35:55;;;;;;;9.20;3.58;;;;;;;26.17;13.74;97843.31;5083379;28;20039;-85
2021/01/08 01:38:22;;;;;;;6.65;2.67;;;;;;;26.19;13.68;97838.81;5082126;28;20051;-85
2021/01/08 01:40:49;;;;;;;7.18;3.35;;;;;;;25.82;13.52;97831.19;5082064;28;20076;-85
2021/01/08 01:43:16;;;;;;;8.82;3.45;;;;;;;25.73;13.78;97839.53;5081264;28;20074;-85
2021/01/08 01:45:43;;;;;;;6.78;3.47;;;;;;;25.66;13.83;97832.13;5069162;28;20036;-85
2021/01/08 01:48:10;;;;;;;4.20;2.25;;;;;;;25.94;13.49;97831.19;5084839;28;20040;-85
2021/01/08 01:50:36;;;;;;;9.05;2.88;;;;;;;26.04;13.57;97832.06;5074130;28;20024;-85
2021/01/08 01:53:03;;;;;;;4.35;2.25;;;;;;;25.85;14.10;97819.06;5084188;28;20099;-85
2021/01/08 01:55:30;;;;;;;5.45;2.63;;;;;;;25.84;14.13;97823.88;5080275;28;20032;-85
2021/01/08 01:57:57;;;;;;;6.80;2.60;;;;;;;26.06;13.92;97821.94;5077893;28;20045;-85
2021/01/08 02:00:24;;;;;;;6.55;2.88;;;;;;;25.90;13.94;97821.31;5081681;28;20025;-85
2021/01/08 02:02:55;;;;;;;6.95;2.97;;;;;;;25.52;14.24;97810.09;5060916;28;20054;-85
2021/01/08 02:05:23;;;;;;;5.18;2.58;;;;;;;25.81;14.10;97810.72;5084625;28;20061;-85
2021/01/08 02:08:09;;;;;;;6.40;3.08;;;;;;;25.87;13.77;97808.13;5062230;28;20511;-85
2021/01/08 02:10:43;;;;;;;5.55;2.72;;;;;;;25.96;13.58;97802.59;5080607;28;20036;-85
2021/01/08 02:13:17;;;;;;;5.85;2.22;;;;;;;25.82;14.05;97798.25;5081274;28;20032;-85
2021/01/08 02:15:45;;;;;;;5.18;2.67;;;;;;;25.82;14.31;97797.44;5080905;28;20050;-85
2021/01/08 02:18:12;;;;;;;5.30;2.38;;;;;;;25.88;13.55;97793.59;5082424;28;20060;-85
2021/01/08 02:20:39;;;;;;;5.82;2.03;;;;;;;25.95;13.94;97801.81;5080749;28;20396;-85
2021/01/08 02:23:17;;;;;;;7.47;2.67;;;;;;;26.12;13.47;97799.66;5078070;28;20036;-85
2021/01/08 02:25:43;;;;;;;5.65;2.45;;;;;;;26.17;13.63;97792.66;5081145;28;20613;-85
2021/01/08 02:28:22;;;;;;;5.35;2.42;;;;;;;26.15;13.79;97795.94;5064567;28;20036;-85
2021/01/08 02:30:50;;;;;;;5.22;2.65;;;;;;;26.44;13.36;97799.31;5085357;28;20035;-85
2021/01/08 02:33:18;;;;;;;5.82;2.63;;;;;;;26.64;13.16;97802.63;5081247;28;20099;-85
2021/01/08 02:35:47;;;;;;;4.43;2.08;;;;;;;26.79;13.17;97796.50;5082986;28;20037;-86
2021/01/08 02:38:16;;;;;;;5.15;2.55;;;;;;;26.95;12.90;97793.47;5083911;28;20055;-85
2021/01/08 02:40:45;;;;;;;6.80;3.28;;;;;;;26.44;13.27;97792.91;5087529;28;20063;-85
2021/01/08 02:43:14;;;;;;;4.93;3.03;;;;;;;25.73;13.83;97798.16;5081303;28;20038;-85
2021/01/08 02:45:40;;;;;;;5.22;2.88;;;;;;;25.47;14.16;97801.41;5083230;28;20051;-85
2021/01/08 02:48:07;;;;;;;4.28;1.70;;;;;;;25.34;14.13;97799.34;5083287;28;20032;-85
2021/01/08 02:50:34;;;;;;;5.82;2.75;;;;;;;24.73;14.61;97788.38;5064355;28;20038;-85
2021/01/08 02:53:05;;;;;;;5.50;2.80;;;;;;;24.96;14.92;97790.13;5080647;28;20027;-85
2021/01/08 02:55:33;;;;;;;7.47;2.80;;;;;;;25.07;14.77;97789.78;5079195;28;20508;-85
2021/01/08 02:58:00;;;;;;;3.50;2.03;;;;;;;25.62;14.24;97785.69;5078473;28;20039;-85
2021/01/08 03:00:31;;;;;;;4.80;2.45;;;;;;;25.87;13.96;97788.44;5071290;28;20036;-85
2021/01/08 03:02:59;;;;;;;5.22;2.88;;;;;;;25.99;13.83;97784.81;5079799;28;20028;-85
2021/01/08 03:05:27;;;;;;;4.65;2.20;;;;;;;26.21;13.56;97788.47;5079807;28;20078;-85
2021/01/08 03:07:55;;;;;;;3.70;2.03;;;;;;;26.32;13.59;97788.91;5088822;28;20043;-85
2021/01/08 03:10:22;;;;;;;4.65;2.00;;;;;;;26.43;13.48;97789.31;5083430;28;20068;-85
2021/01/08 03:12:59;;;;;;;5.68;2.55;;;;;;;26.36;13.40;97789.56;5084469;28;20039;-85
2021/01/08 03:15:25;;;;;;;3.17;2.33;;;;;;;25.85;13.99;97790.94;5065008;28;20460;-85
2021/01/08 03:17:51;;;;;;;4.25;2.13;;;;;;;25.90;14.01;97790.34;5085656;28;20127;-85
2021/01/08 03:20:17;;;;;;;3.30;1.50;;;;;;;25.74;14.14;97793.31;5084371;28;20085;-85
2021/01/08 03:22:43;;;;;;;5.20;2.50;;;;;;;25.73;14.06;97795.34;5083116;28;20565;-85
2021/01/08 03:25:10;;;;;;;4.40;1.98;;;;;;;25.99;14.03;97796.88;5081641;28;20119;-85
2021/01/08 03:27:36;;;;;;;5.47;1.70;;;;;;;26.01;13.77;97796.41;5088711;28;20032;-85
2021/01/08 03:30:04;;;;;;;2.97;1.65;;;;;;;26.24;13.82;97795.22;5087807;28;20420;-85
2021/01/08 03:32:30;;;;;;;3.28;1.75;;;;;;;26.49;13.86;97798.72;5083749;28;20876;-85
2021/01/08 03:34:56;;;;;;;3.65;1.88;;;;;;;26.55;13.53;97804.56;5085744;28;20034;-85
2021/01/08 03:37:22;;;;;;;2.47;1.58;;;;;;;26.66;13.55;97799.31;5065046;28;20039;-86
2021/01/08 03:39:48;;;;;;;5.28;2.00;;;;;;;26.72;13.57;97803.16;5088332;28;20412;-85
2021/01/08 03:42:14;;;;;;;3.95;2.03;;;;;;;26.24;13.85;97798.84;5084364;28;20043;-85
2021/01/08 03:44:41;;;;;;;5.07;1.75;;;;;;;26.10;14.11;97799.31;5088222;28;20500;-85
2021/01/08 03:47:07;;;;;;;3.75;1.83;;;;;;;26.07;14.19;97801.00;5084099;28;20111;-85
2021/01/08 03:49:38;;;;;;;3.25;1.83;;;;;;;25.94;14.16;97802.28;5084472;28;20111;-85
2021/01/08 03:52:05;;;;;;;3.10;1.65;;;;;;;26.06;13.73;97801.47;5084190;28;20043;-85
2021/01/08 03:54:32;;;;;;;3.22;1.83;;;;;;;26.20;13.84;97801.00;5087385;28;20384;-85
2021/01/08 03:56:58;;;;;;;3.60;1.38;;;;;;;26.35;13.79;97809.72;5086820;28;20599;-85
2021/01/08 03:59:24;;;;;;;4.15;1.73;;;;;;;26.50;13.91;97803.13;5085413;28;20054;-85
2021/01/08 04:01:50;;;;;;;4.10;1.55;;;;;;;26.71;13.67;97793.13;5089841;28;20032;-85
2021/01/08 04:04:16;;;;;;;3.90;2.58;;;;;;;26.39;13.30;97799.91;5087165;28;20048;-85
2021/01/08 04:06:42;;;;;;;2.72;1.55;;;;;;;25.93;14.28;97798.66;5088076;28;20039;-85
2021/01/08 04:09:09;;;;;;;2.70;1.45;;;;;;;26.00;14.15;97800.44;5082690;28;20081;-85
2021/01/08 04:11:35;;;;;;;3.42;1.77;;;;;;;26.36;13.66;97789.56;5086385;28;20039;-85
2021/01/08 04:14:01;;;;;;;4.78;2.17;;;;;;;26.69;13.23;97793.59;5082825;28;20038;-85
2021/01/08 04:16:34;;;;;;;3.88;2.13;;;;;;;26.68;12.98;97791.22;5087304;28;20053;-85
2021/01/08 04:19:00;;;;;;;4.65;2.08;;;;;;;26.42;13.50;97796.16;5086323;28;20032;-87
2021/01/08 04:21:26;;;;;;;3.88;2.20;;;;;;;26.41;13.36;97791.78;5084233;28;20093;-85
2021/01/08 04:23:52;;;;;;;2.40;1.48;;;;;;;26.48;13.75;97783.09;5081324;28;20031;-85
2021/01/08 04:26:19;;;;;;;2.08;1.60;;;;;;;26.47;13.61;97786.34;5087320;28;20036;-85
2021/01/08 04:28:45;;;;;;;3.55;1.70;;;;;;;26.35;13.35;97787.97;5068696;28;20028;-85
2021/01/08 04:31:11;;;;;;;2.63;1.25;;;;;;;26.40;13.55;97787.41;5060725;28;20241;-86
2021/01/08 04:33:37;;;;;;;3.97;1.48;;;;;;;26.44;13.42;97790.88;5081052;28;20024;-85
2021/01/08 04:36:04;;;;;;;3.42;1.95;;;;;;;26.53;13.51;97793.78;5084776;28;20089;-86
2021/01/08 04:38:30;;;;;;;2.80;1.60;;;;;;;26.56;13.53;97786.41;5062838;28;20031;-85
2021/01/08 04:40:56;;;;;;;2.38;1.42;;;;;;;26.75;13.49;97799.41;5083012;28;20066;-85
2021/01/08 04:43:23;;;;;;;3.25;1.63;;;;;;;26.82;13.29;97799.16;5084046;28;20040;-85
2021/01/08 04:45:49;;;;;;;2.20;1.48;;;;;;;26.87;13.40;97789.31;5084465;28;20032;-86
2021/01/08 04:48:17;;;;;;;2.40;1.55;;;;;;;26.83;13.52;97785.88;5083651;28;20052;-85
2021/01/08 04:50:44;;;;;;;2.83;1.40;;;;;;;26.92;13.39;97792.34;5080583;28;20041;-85
2021/01/08 04:53:11;;;;;;;3.67;1.88;;;;;;;26.97;13.21;97790.97;5083940;28;20024;-85
2021/01/08 04:55:37;;;;;;;1.77;1.17;;;;;;;26.99;13.09;97791.28;5084171;28;20491;-85
2021/01/08 04:58:07;;;;;;;2.70;1.58;;;;;;;26.91;13.23;97795.63;5080870;28;20044;-85
2021/01/08 05:00:35;;;;;;;2.58;1.40;;;;;;;26.87;13.35;97794.97;5081583;28;20497;-86
2021/01/08 05:03:02;;;;;;;1.92;1.70;;;;;;;26.74;13.19;97790.19;5060730;28;20037;-86
2021/01/08 05:05:28;;;;;;;3.47;1.92;;;;;;;26.60;13.60;97796.34;5090001;28;20527;-85
2021/01/08 05:07:54;;;;;;;3.85;1.45;;;;;;;26.64;13.25;97791.34;5076572;28;20035;-85
2021/01/08 05:10:20;;;;;;;3.30;1.67;;;;;;;26.79;13.20;97790.84;5082613;28;20129;-85
2021/01/08 05:12:51;;;;;;;2.50;1.52;;;;;;;26.91;13.00;97798.44;5085932;28;20115;-85
2021/01/08 05:15:17;;;;;;;3.33;1.65;;;;;;;26.96;12.92;97790.16;5085674;28;20020;-85
2021/01/08 05:17:44;;;;;;;2.47;1.50;;;;;;;27.09;12.90;97792.91;5092700;28;20040;-86
2021/01/08 05:20:11;;;;;;;4.20;1.73;;;;;;;27.18;12.95;97792.97;5085562;28;20681;-85
2021/01/08 05:22:40;;;;;;;3.35;2.10;;;;;;;26.79;13.30;97793.66;5086171;28;20369;-85
2021/01/08 05:25:10;;;;;;;2.28;1.58;;;;;;;26.59;13.56;97791.13;5086734;28;20036;-85
2021/01/08 05:27:38;;;;;;;3.30;1.60;;;;;;;26.35;13.87;97795.66;5084857;28;20036;-85
2021/01/08 05:30:16;;;;;;;3.22;1.85;;;;;;;26.28;13.86;97795.91;5090602;28;20024;-85
2021/01/08 05:32:42;;;;;;;2.42;1.40;;;;;;;26.13;13.99;97795.63;5085408;28;20060;-85
2021/01/08 05:35:14;;;;;;;2.20;1.55;;;;;;;26.27;14.04;97797.13;5093243;28;20028;-85
2021/01/08 05:37:43;;;;;;;1.77;1.27;;;;;;;26.06;13.80;97791.00;5086134;28;20480;-85
2021/01/08 05:40:10;;;;;;;3.63;1.40;;;;;;;26.13;13.99;97790.00;5085927;28;20126;-85
2021/01/08 05:42:49;;;;;;;1.90;1.25;;;;;;;26.19;13.88;97795.81;5082420;28;20083;-85
2021/01/08 05:45:15;;;;;;;1.88;1.38;;;;;;;26.29;13.53;97794.66;5088538;28;20519;-86
2021/01/08 05:47:42;;;;;;;3.53;1.58;;;;;;;26.13;13.69;97794.81;5087177;28;20420;-86
2021/01/08 05:50:10;;;;;;;2.38;1.73;;;;;;;26.21;13.62;97801.78;5083515;28;20032;-86
2021/01/08 05:52:38;;;;;;;3.28;1.85;;;;;;;26.03;13.81;97800.34;5087401;28;20051;-86
2021/01/08 05:55:13;;;;;;;2.75;1.88;;;;;;;25.61;14.26;97798.94;5086527;28;20506;-86
2021/01/08 05:57:41;;;;;;;2.63;1.48;;;;;;;25.95;13.93;97799.00;5091580;28;20044;-87
2021/01/08 06:00:09;;;;;;;3.45;1.55;;;;;;;26.00;14.02;97803.25;5068803;28;20043;-87
2021/01/08 06:02:36;;;;;;;5.70;2.35;;;;;;;26.04;13.73;97798.31;5087099;28;20048;-87
2021/01/08 06:05:06;;;;;;;7.15;2.45;;;;;;;25.77;14.21;97804.44;5083650;28;20127;-87
2021/01/08 06:07:38;;;;;;;7.18;2.75;;;;;;;25.96;14.00;97800.56;5085230;28;20036;-87
2021/01/08 06:10:06;;;;;;;8.25;2.85;;;;;;;26.17;13.76;97801.09;5083145;28;20503;-86
2021/01/08 06:12:38;;;;;;;5.03;2.28;;;;;;;26.09;13.65;97797.75;5086752;28;20032;-87
2021/01/08 06:15:14;;;;;;;6.88;2.97;;;;;;;26.17;13.47;97801.09;5081788;28;20032;-85
2021/01/08 06:17:44;;;;;;;7.45;2.45;;;;;;;26.09;13.64;97798.50;5064922;28;20028;-85
2021/01/08 06:20:12;;;;;;;7.28;2.80;;;;;;;25.98;14.03;97794.50;5082872;28;20522;-85
2021/01/08 06:22:40;;;;;;;3.50;1.65;;;;;;;26.17;13.96;97795.47;5081461;28;20034;-85
2021/01/08 06:25:08;;;;;;;5.53;2.08;;;;;;;26.24;13.77;97798.03;5090930;28;20380;-85
2021/01/08 06:27:35;;;;;;;3.22;2.03;;;;;;;26.20;13.69;97801.00;5086702;28;20046;-86
2021/01/08 06:30:07;;;;;;;3.90;2.03;;;;;;;26.35;13.35;97798.47;5064855;28;20086;-87
2021/01/08 06:32:36;;;;;;;4.78;2.15;;;;;;;26.44;13.36;97792.91;5064459;28;20404;-85
2021/01/08 06:35:06;;;;;;;7.40;2.88;;;;;;;26.22;13.41;97806.16;5082449;28;20036;-87
2021/01/08 06:37:42;;;;;;;4.22;2.05;;;;;;;26.12;13.51;97796.84;5078388;28;20044;-86
2021/01/08 06:40:10;;;;;;;3.85;1.92;;;;;;;25.84;13.87;97797.78;5061222;28;20033;-88
2021/01/08 06:42:47;;;;;;;4.22;2.15;;;;;;;26.01;13.99;97800.00;5069825;28;20032;-87
2021/01/08 06:45:20;;;;;;;3.15;1.77;;;;;;;26.37;13.36;97799.56;5073745;28;20369;-87
2021/01/08 06:47:50;;;;;;;4.88;2.28;;;;;;;26.32;13.46;97811.44;5063102;28;20033;-86
2021/01/08 06:50:18;;;;;;;3.22;2.20;;;;;;;26.32;13.62;97805.81;5074641;28;20119;-87
2021/01/08 06:52:46;;;;;;;3.08;1.83;;;;;;;26.08;13.43;97802.56;5071999;28;20112;-87
2021/01/08 06:55:18;;;;;;;3.50;2.22;;;;;;;25.75;13.91;97806.91;5070680;28;20020;-88
2021/01/08 06:57:49;;;;;;;3.10;1.85;;;;;;;26.03;13.60;97807.97;5076590;28;20033;-88
2021/01/08 07:00:28;;;;;;;4.63;3.42;;;;;;;26.12;13.36;97810.13;5071934;28;20066;-87
2021/01/08 07:03:10;;;;;;;3.38;1.80;;;;;;;26.10;13.48;97807.78;5073325;28;20438;-87
2021/01/08 07:05:36;;;;;;;3.60;2.70;;;;;;;26.22;13.23;97811.78;5068884;28;20409;-88
2021/01/08 07:08:04;;;;;;;2.65;2.17;;;;;;;26.13;13.50;97820.94;5059759;28;20033;-87
2021/01/08 07:10:31;;;;;;;3.17;2.28;;;;;;;26.39;13.27;97818.84;5063883;28;20389;-86
2021/01/08 07:12:58;;;;;;;3.38;2.40;;;;;;;26.11;13.36;97823.44;5059878;28;20096;-87
2021/01/08 07:15:27;;;;;;;2.67;1.75;;;;;;;25.67;14.28;97827.28;5063296;28;20388;-87
2021/01/08 07:17:57;;;;;;;3.33;1.98;;;;;;;25.38;14.56;97824.56;5071514;28;20115;-87
2021/01/08 07:20:23;;;;;;;2.88;1.80;;;;;;;25.58;13.96;97824.38;5075226;28;20036;-87
2021/01/08 07:22:55;;;;;;;4.53;2.35;;;;;;;25.75;13.99;97826.59;5062226;28;20041;-86
2021/01/08 07:25:27;;;;;;;8.05;3.38;;;;;;;26.11;13.73;97826.25;5070452;28;20047;-90
2021/01/08 07:27:53;;;;;;;;;;;;;;;26.05;13.66;97823.16;5071084;28;20070;-87
2021/01/08 07:30:23;;;;;;;7.22;2.70;;;;;;;26.51;13.53;97832.09;5062987;28;19931;-88
2021/01/08 07:32:50;;;;;;;7.18;3.05;;;;;;;26.79;13.17;97824.66;5067772;28;20158;-88
2021/01/08 07:35:25;;;;;;;3.25;1.88;;;;;;;26.66;13.45;97827.50;5071986;28;20028;-88
2021/01/08 07:38:08;;;;;;;3.80;2.47;;;;;;;26.57;13.53;97831.03;5063711;28;20036;-88
2021/01/08 07:40:37;;;;;;;11.15;4.38;;;;;;;26.73;13.33;97839.28;5080614;28;20036;-88
2021/01/08 07:43:11;;;;;;;4.72;2.25;;;;;;;26.41;13.82;97836.84;5095555;28;20032;-88
2021/01/08 07:45:51;;;;;;;7.72;3.47;;;;;;;26.12;14.15;97841.06;5095577;28;20032;-88
2021/01/08 07:48:26;;;;;;;7.45;3.65;;;;;;;26.54;13.61;97848.03;5093255;28;20036;-88
2021/01/08 07:51:02;;;;;;;9.20;4.10;;;;;;;26.19;13.74;97846.47;5089965;28;20039;-88
2021/01/08 07:53:43;;;;;;;7.68;2.95;;;;;;;26.01;13.93;97850.66;5093975;28;20028;-88
2021/01/08 07:56:13;;;;;;;4.82;2.83;;;;;;;26.59;13.80;97851.06;5090319;28;20024;-88
2021/01/08 07:58:41;;;;;;;5.22;2.67;;;;;;;26.90;13.28;97854.00;5075173;28;20066;-88
2021/01/08 08:01:12;;;;;;;5.70;2.42;;;;;;;27.03;13.27;97851.91;5087729;28;20080;-88
2021/01/08 08:03:39;;;;;;;6.07;2.78;;;;;;;27.12;13.22;97856.81;5090847;28;20032;-88
2021/01/08 08:06:06;;;;;;;4.63;2.58;;;;;;;27.01;13.34;97859.22;5088153;28;20039;-88
2021/01/08 08:08:38;;;;;;;4.35;2.15;;;;;;;27.14;12.92;97857.91;5086714;28;20039;-88
2021/01/08 08:11:16;;;;;;;6.82;3.35;;;;;;;26.88;13.35;97858.53;5089785;28;20024;-87
2021/01/08 08:13:44;;;;;;;7.95;3.67;;;;;;;26.86;13.23;97864.63;5077701;28;20032;-88
2021/01/08 08:16:10;;;;;;;6.75;3.67;;;;;;;26.86;13.41;97852.56;5095211;28;20111;-88
2021/01/08 08:18:50;;;;;;;6.07;3.63;;;;;;;26.66;13.09;97864.09;5073989;28;20499;-88
2021/01/08 08:21:16;;;;;;;5.00;2.97;;;;;;;26.55;13.67;97864.50;5091992;28;20509;-88
2021/01/08 08:23:50;;;;;;;7.30;4.10;;;;;;;26.57;13.87;97873.28;5092529;28;20040;-88
2021/01/08 08:26:16;;;;;;;10.40;4.65;;;;;;;26.57;13.83;97866.84;5087877;28;20047;-88
2021/01/08 08:28:42;;;;;;;7.13;3.45;;;;;;;26.89;13.69;97874.16;5089716;28;20032;-87
2021/01/08 08:31:13;;;;;;;6.13;3.33;;;;;;;26.82;13.62;97863.16;5086675;28;20110;-87
2021/01/08 08:33:44;;;;;;;6.05;3.35;;;;;;;26.70;13.69;97874.00;5086627;28;20484;-87
2021/01/08 08:36:11;;;;;;;10.07;4.63;;;;;;;26.79;13.88;97881.78;5083241;28;20161;-87
2021/01/08 08:38:37;;;;;;;13.38;6.07;;;;;;;26.39;13.28;97873.13;5088209;28;20491;-87
2021/01/08 08:41:13;;;;;;;10.45;5.15;;;;;;;26.52;13.85;97875.88;5079584;28;20033;-87
2021/01/08 08:43:39;;;;;;;9.18;4.65;;;;;;;26.90;13.77;97870.91;5067655;28;20411;-87
2021/01/08 08:46:08;;;;;;;8.20;3.83;;;;;;;26.87;13.84;97871.03;5091126;28;20024;-88
2021/01/08 08:48:38;;;;;;;7.78;3.53;;;;;;;26.95;13.89;97869.53;5089997;28;20050;-88
2021/01/08 08:51:04;;;;;;;8.60;3.97;;;;;;;27.22;13.59;97872.53;5085187;28;20078;-88
2021/01/08 08:53:31;;;;;;;17.33;7.95;;;;;;;27.37;13.14;97871.56;5087646;28;20290;-87
2021/01/08 08:55:57;;;;;;;6.07;4.03;;;;;;;27.61;13.72;97874.66;5092743;28;20032;-87
2021/01/08 08:58:23;;;;;;;15.80;6.75;;;;;;;27.69;13.07;97870.31;5086637;28;20495;-88
2021/01/08 09:00:51;;;;;;;14.32;7.88;;;;;;;27.80;12.71;97873.47;5095438;28;20098;-88
2021/01/08 09:03:24;;;;;;;13.80;6.00;;;;;;;27.75;12.82;97876.91;5087692;28;20028;-88
2021/01/08 09:05:53;;;;;;;14.10;7.53;;;;;;;27.57;13.10;97876.03;5087947;28;20044;-88
2021/01/08 09:08:21;;;;;;;13.75;7.43;;;;;;;27.57;13.21;97876.81;5083588;28;20527;-87
2021/01/08 09:10:58;;;;;;;8.95;4.47;;;;;;;27.45;13.06;97876.91;5086726;28;20082;-87
2021/01/08 09:13:52;;;;;;;10.85;5.88;;;;;;;27.50;13.00;97868.66;5085371;28;20519;-87
2021/01/08 09:16:31;;;;;;;14.40;6.50;;;;;;;27.55;13.29;97867.25;5086175;28;20388;-88
2021/01/08 09:19:22;;;;;;;11.50;5.93;;;;;;;27.58;13.00;97869.94;5084934;28;20016;-87
2021/01/08 09:21:50;;;;;;;11.55;6.10;;;;;;;27.91;12.80;97875.88;5077755;28;20040;-87
2021/01/08 09:24:19;;;;;;;18.52;8.77;;;;;;;26.64;13.62;97875.03;5086497;28;20071;-87
2021/01/08 09:26:46;;;;;;;12.23;6.15;;;;;;;27.49;13.32;97883.22;5084926;28;20082;-87
2021/01/08 09:29:25;;;;;;;15.30;6.40;;;;;;;27.79;12.92;97877.56;5093846;28;20544;-88
2021/01/08 09:31:51;;;;;;;13.90;7.20;;;;;;;27.91;13.11;97873.06;5089670;28;20043;-87
2021/01/08 09:34:21;;;;;;;10.23;6.22;;;;;;;27.97;13.24;97874.00;5088840;28;20044;-87
2021/01/08 09:36:51;;;;;;;12.68;6.47;;;;;;;28.08;13.28;97869.53;5089730;28;20036;-87
2021/01/08 09:39:19;;;;;;;11.65;5.80;;;;;;;28.02;12.51;97871.41;5088194;28;20450;-87
2021/01/08 09:41:53;;;;;;;9.70;5.40;;;;;;;27.84;12.88;97879.75;5088474;28;20036;-87
2021/01/08 09:44:30;;;;;;;9.25;5.28;;;;;;;27.66;12.95;97870.44;5091164;28;20062;-88
2021/01/08 09:47:06;;;;;;;8.52;5.78;;;;;;;27.98;13.07;97875.59;5085058;28;20450;-88
2021/01/08 09:49:39;;;;;;;13.77;6.40;;;;;;;27.84;12.55;97876.94;5090960;28;20020;-88
2021/01/08 09:52:06;;;;;;;9.07;5.57;;;;;;;27.61;13.12;97871.81;5089390;28;20496;-86
2021/01/08 09:54:45;;;;;;;10.20;5.93;;;;;;;27.78;13.04;97875.97;5091645;28;20458;-87
2021/01/08 09:57:26;;;;;;;13.68;5.55;;;;;;;27.95;12.81;97877.31;5088027;28;20109;-88
2021/01/08 09:59:57;;;;;;;11.35;8.25;;;;;;;27.96;12.86;97873.22;5090710;28;20028;-88
2021/01/08 10:02:39;;;;;;;13.82;9.15;;;;;;;27.74;12.78;97868.91;5089565;28;20123;-87
2021/01/08 10:05:19;;;;;;;18.35;12.82;;;;;;;27.66;13.01;97868.41;5085652;28;22156;-88
2021/01/08 10:07:46;;;;;;;24.08;17.27;;;;;;;26.40;13.48;97868.25;5083038;28;20063;-88
2021/01/08 10:10:14;;;;;;;17.08;11.15;;;;;;;27.38;13.17;97867.50;5082540;28;20037;-88
2021/01/08 10:12:45;;;;;;;13.98;7.60;;;;;;;26.64;13.45;97863.78;5086362;28;20124;-88
2021/01/08 10:15:18;;;;;;;9.27;6.85;;;;;;;26.77;13.49;97870.16;5089026;28;20043;-88
2021/01/08 10:17:49;;;;;;;10.15;6.60;;;;;;;26.90;13.12;97862.47;5087469;28;21016;-88
2021/01/08 10:20:17;;;;;;;5.55;4.00;;;;;;;27.00;13.12;97860.50;5084672;28;20044;-88
2021/01/08 10:22:48;;;;;;;5.88;4.20;;;;;;;27.19;13.03;97850.91;5077843;28;20032;-88
2021/01/08 10:25:30;;;;;;;6.28;4.00;;;;;;;27.16;12.96;97852.63;5089208;28;20103;-88
2021/01/08 10:28:17;;;;;;;6.70;3.60;;;;;;;26.52;12.87;97859.78;5085609;28;20036;-87
2021/01/08 10:30:45;;;;;;;5.43;3.55;;;;;;;26.76;13.26;97859.38;5087079;28;20036;-88
2021/01/08 10:33:12;;;;;;;11.52;5.47;;;;;;;26.75;13.13;97852.94;5090998;28;20032;-88
2021/01/08 10:35:43;;;;;;;10.32;4.43;;;;;;;26.12;13.42;97855.16;5065803;28;20033;-88
2021/01/08 10:38:09;;;;;;;7.80;4.22;;;;;;;25.90;13.59;97849.44;5063994;28;20250;-87
2021/01/08 10:40:36;;;;;;;6.28;3.40;;;;;;;26.52;13.22;97853.34;5088008;28;20107;-87
2021/01/08 10:43:02;;;;;;;5.90;3.22;;;;;;;26.62;12.89;97846.56;5091005;28;20032;-88
2021/01/08 10:45:28;;;;;;;8.68;4.00;;;;;;;26.72;13.25;97834.13;5065697;28;20040;-88
2021/01/08 10:47:54;;;;;;;8.32;4.18;;;;;;;26.82;13.01;97835.78;5086385;28;20032;-88
2021/01/08 10:50:20;;;;;;;5.22;2.97;;;;;;;27.17;13.31;97830.84;5080526;28;20051;-87
2021/01/08 10:52:46;;;;;;;4.72;2.60;;;;;;;26.99;12.40;97828.72;5066388;28;20059;-87
2021/01/08 10:55:12;;;;;;;5.15;2.53;;;;;;;27.23;12.86;97831.81;5086844;28;20032;-87
2021/01/08 10:57:39;;;;;;;3.33;2.30;;;;;;;27.08;12.68;97834.41;5084646;28;20033;-87
2021/01/08 11:00:08;;;;;;;23.02;9.95;;;;;;;27.21;12.46;97821.00;5085699;28;20032;-88
2021/01/08 11:02:35;;;;;;;10.50;4.38;;;;;;;27.15;12.87;97824.88;5072729;28;20024;-88
2021/01/08 11:05:03;;;;;;;8.88;4.10;;;;;;;27.24;12.59;97828.53;5086972;28;20103;-88
2021/01/08 11:07:31;;;;;;;10.45;4.72;;;;;;;27.08;12.94;97825.94;5087776;28;20032;-88
2021/01/08 11:09:57;;;;;;;8.00;4.38;;;;;;;27.08;12.77;97819.50;5074140;28;20071;-88
2021/01/08 11:12:23;;;;;;;5.13;3.45;;;;;;;27.22;13.01;97819.75;5078096;28;20060;-88
2021/01/08 11:14:49;;;;;;;6.65;3.80;;;;;;;27.49;13.09;97819.16;5085784;28;20457;-88
2021/01/08 11:17:15;;;;;;;6.20;4.63;;;;;;;27.62;12.75;97816.22;5084633;28;20027;-87
2021/01/08 11:19:41;;;;;;;3.97;2.67;;;;;;;26.72;13.40;97808.78;5083839;28;20536;-88
2021/01/08 11:22:08;;;;;;;4.55;2.78;;;;;;;27.13;13.43;97810.47;5087767;28;20020;-88
2021/01/08 11:24:37;;;;;;;4.10;2.75;;;;;;;27.04;13.67;97813.22;5078175;28;20051;-88
2021/01/08 11:27:04;;;;;;;5.60;2.67;;;;;;;26.88;13.46;97808.59;5089023;28;20395;-88
2021/01/08 11:29:31;;;;;;;5.10;3.28;;;;;;;26.92;13.44;97814.09;5092226;28;20403;-88
2021/01/08 11:31:57;;;;;;;4.28;2.75;;;;;;;26.86;13.97;97816.75;5088245;28;20031;-88
2021/01/08 11:34:23;;;;;;;3.42;2.55;;;;;;;27.26;12.96;97816.78;5087570;28;20044;-88
2021/01/08 11:36:55;;;;;;;3.92;2.22;;;;;;;27.04;13.41;97811.22;5091762;28;20450;-88
2021/01/08 11:39:21;;;;;;;4.97;2.72;;;;;;;27.63;13.36;97812.94;5073420;28;20127;-88